sensor_id;sensor_type;location;lat;lon;timestamp;P1;durP1;ratioP1;P2;durP2;ratioP2
3541;SDS011;1785;47.388;8.538;2024-01-30T00:02:12;17.80;;;16.10;;
3541;SDS011;1785;47.388;8.538;2024-01-30T00:04:38;15.83;;;14.30;;
3541;SDS011;1785;47.388;8.538;2024-01-30T00:07:05;17.37;;;15.63;;
3541;SDS011;1785;47.388;8.538;2024-01-30T00:09:31;17.20;;;15.70;;
3541;SDS011;1785;47.388;8.538;2024-01-30T00:11:57;18.67;;;16.87;;
3541;SDS011;1785;47.388;8.538;2024-01-30T00:14:24;16.37;;;14.80;;
3541;SDS011;1785;47.388;8.538;2024-01-30T00:16:50;16.20;;;14.60;;
3541;SDS011;1785;47.388;8.538;2024-01-30T00:19:16;16.73;;;15.23;;
3541;SDS011;1785;47.388;8.538;2024-01-30T00:21:43;16.70;;;15.10;;
3541;SDS011;1785;47.388;8.538;2024-01-30T00:24:09;15.30;;;13.90;;
3541;SDS011;1785;47.388;8.538;2024-01-30T00:26:35;15.20;;;13.77;;
3541;SDS011;1785;47.388;8.538;2024-01-30T00:29:01;16.83;;;15.23;;
3541;SDS011;1785;47.388;8.538;2024-01-30T00:31:28;15.43;;;14.03;;
3541;SDS011;1785;47.388;8.538;2024-01-30T00:33:54;16.63;;;15.00;;
3541;SDS011;1785;47.388;8.538;2024-01-30T00:36:20;15.83;;;14.53;;
3541;SDS011;1785;47.388;8.538;2024-01-30T00:38:47;17.67;;;16.07;;
3541;SDS011;1785;47.388;8.538;2024-01-30T00:41:14;16.63;;;15.13;;
3541;SDS011;1785;47.388;8.538;2024-01-30T00:43:42;17.23;;;15.33;;
3541;SDS011;1785;47.388;8.538;2024-01-30T00:46:08;16.87;;;15.30;;
3541;SDS011;1785;47.388;8.538;2024-01-30T00:48:34;19.20;;;17.20;;
3541;SDS011;1785;47.388;8.538;2024-01-30T00:51:02;18.13;;;16.43;;
3541;SDS011;1785;47.388;8.538;2024-01-30T00:53:29;16.87;;;15.17;;
3541;SDS011;1785;47.388;8.538;2024-01-30T00:55:56;17.40;;;15.80;;
3541;SDS011;1785;47.388;8.538;2024-01-30T00:58:22;17.43;;;15.73;;
3541;SDS011;1785;47.388;8.538;2024-01-30T01:00:48;17.17;;;15.47;;
3541;SDS011;1785;47.388;8.538;2024-01-30T01:03:14;15.83;;;14.33;;
3541;SDS011;1785;47.388;8.538;2024-01-30T01:05:41;16.67;;;14.90;;
3541;SDS011;1785;47.388;8.538;2024-01-30T01:08:07;16.43;;;13.60;;
3541;SDS011;1785;47.388;8.538;2024-01-30T01:10:34;16.20;;;14.57;;
3541;SDS011;1785;47.388;8.538;2024-01-30T01:13:01;13.93;;;12.53;;
3541;SDS011;1785;47.388;8.538;2024-01-30T01:15:27;15.20;;;13.83;;
3541;SDS011;1785;47.388;8.538;2024-01-30T01:17:53;15.23;;;13.73;;
3541;SDS011;1785;47.388;8.538;2024-01-30T01:20:19;16.10;;;14.60;;
3541;SDS011;1785;47.388;8.538;2024-01-30T01:22:46;14.60;;;13.30;;
3541;SDS011;1785;47.388;8.538;2024-01-30T01:25:12;16.07;;;14.47;;
3541;SDS011;1785;47.388;8.538;2024-01-30T01:27:38;15.67;;;14.10;;
3541;SDS011;1785;47.388;8.538;2024-01-30T01:30:08;15.13;;;13.73;;
3541;SDS011;1785;47.388;8.538;2024-01-30T01:32:35;14.17;;;12.87;;
3541;SDS011;1785;47.388;8.538;2024-01-30T01:35:01;14.67;;;13.10;;
3541;SDS011;1785;47.388;8.538;2024-01-30T01:37:29;14.83;;;13.43;;
3541;SDS011;1785;47.388;8.538;2024-01-30T01:39:55;15.27;;;13.97;;
3541;SDS011;1785;47.388;8.538;2024-01-30T01:42:21;14.57;;;13.27;;
3541;SDS011;1785;47.388;8.538;2024-01-30T01:44:48;13.10;;;11.93;;
3541;SDS011;1785;47.388;8.538;2024-01-30T01:47:14;14.87;;;13.60;;
3541;SDS011;1785;47.388;8.538;2024-01-30T01:49:41;15.43;;;14.13;;
3541;SDS011;1785;47.388;8.538;2024-01-30T01:52:07;15.50;;;14.27;;
3541;SDS011;1785;47.388;8.538;2024-01-30T01:54:33;14.63;;;13.33;;
3541;SDS011;1785;47.388;8.538;2024-01-30T01:57:00;14.77;;;13.40;;
3541;SDS011;1785;47.388;8.538;2024-01-30T01:59:26;14.20;;;13.00;;
3541;SDS011;1785;47.388;8.538;2024-01-30T02:01:54;14.67;;;13.37;;
3541;SDS011;1785;47.388;8.538;2024-01-30T02:04:21;15.37;;;13.97;;
3541;SDS011;1785;47.388;8.538;2024-01-30T02:06:47;14.23;;;12.93;;
3541;SDS011;1785;47.388;8.538;2024-01-30T02:09:14;15.20;;;13.90;;
3541;SDS011;1785;47.388;8.538;2024-01-30T02:11:40;14.57;;;13.33;;
3541;SDS011;1785;47.388;8.538;2024-01-30T02:14:06;15.10;;;13.80;;
3541;SDS011;1785;47.388;8.538;2024-01-30T02:16:32;14.80;;;13.47;;
3541;SDS011;1785;47.388;8.538;2024-01-30T02:18:58;14.67;;;13.27;;
3541;SDS011;1785;47.388;8.538;2024-01-30T02:21:25;14.90;;;13.60;;
3541;SDS011;1785;47.388;8.538;2024-01-30T02:23:51;13.43;;;12.23;;
3541;SDS011;1785;47.388;8.538;2024-01-30T02:26:20;13.00;;;11.90;;
3541;SDS011;1785;47.388;8.538;2024-01-30T02:28:46;13.50;;;12.30;;
3541;SDS011;1785;47.388;8.538;2024-01-30T02:31:12;14.67;;;13.37;;
3541;SDS011;1785;47.388;8.538;2024-01-30T02:33:38;13.60;;;12.40;;
3541;SDS011;1785;47.388;8.538;2024-01-30T02:36:04;14.30;;;13.00;;
3541;SDS011;1785;47.388;8.538;2024-01-30T02:38:31;14.30;;;12.90;;
3541;SDS011;1785;47.388;8.538;2024-01-30T02:40:58;14.33;;;13.03;;
3541;SDS011;1785;47.388;8.538;2024-01-30T02:43:24;12.40;;;11.40;;
3541;SDS011;1785;47.388;8.538;2024-01-30T02:45:50;13.07;;;11.97;;
3541;SDS011;1785;47.388;8.538;2024-01-30T02:48:16;12.97;;;11.80;;
3541;SDS011;1785;47.388;8.538;2024-01-30T02:50:42;14.20;;;12.80;;
3541;SDS011;1785;47.388;8.538;2024-01-30T02:53:08;13.47;;;12.37;;
3541;SDS011;1785;47.388;8.538;2024-01-30T02:55:35;14.47;;;13.07;;
3541;SDS011;1785;47.388;8.538;2024-01-30T02:58:01;12.23;;;11.10;;
3541;SDS011;1785;47.388;8.538;2024-01-30T03:00:28;13.17;;;12.03;;
3541;SDS011;1785;47.388;8.538;2024-01-30T03:02:54;11.90;;;10.93;;
3541;SDS011;1785;47.388;8.538;2024-01-30T03:05:20;12.63;;;11.43;;
3541;SDS011;1785;47.388;8.538;2024-01-30T03:07:46;11.83;;;10.83;;
3541;SDS011;1785;47.388;8.538;2024-01-30T03:10:12;13.03;;;11.83;;
3541;SDS011;1785;47.388;8.538;2024-01-30T03:12:40;12.83;;;11.57;;
3541;SDS011;1785;47.388;8.538;2024-01-30T03:15:06;12.20;;;11.20;;
3541;SDS011;1785;47.388;8.538;2024-01-30T03:17:34;12.90;;;11.90;;
3541;SDS011;1785;47.388;8.538;2024-01-30T03:20:01;12.60;;;11.60;;
3541;SDS011;1785;47.388;8.538;2024-01-30T03:22:28;13.00;;;11.90;;
3541;SDS011;1785;47.388;8.538;2024-01-30T03:24:54;12.33;;;11.23;;
3541;SDS011;1785;47.388;8.538;2024-01-30T03:27:21;12.67;;;11.67;;
3541;SDS011;1785;47.388;8.538;2024-01-30T03:29:47;12.50;;;11.40;;
3541;SDS011;1785;47.388;8.538;2024-01-30T03:32:14;13.80;;;12.47;;
3541;SDS011;1785;47.388;8.538;2024-01-30T03:34:40;14.00;;;12.90;;
3541;SDS011;1785;47.388;8.538;2024-01-30T03:37:06;13.93;;;12.73;;
3541;SDS011;1785;47.388;8.538;2024-01-30T03:39:32;13.20;;;12.03;;
3541;SDS011;1785;47.388;8.538;2024-01-30T03:41:59;12.27;;;11.17;;
3541;SDS011;1785;47.388;8.538;2024-01-30T03:44:25;14.10;;;12.90;;
3541;SDS011;1785;47.388;8.538;2024-01-30T03:46:52;14.47;;;13.17;;
3541;SDS011;1785;47.388;8.538;2024-01-30T03:49:18;14.33;;;12.93;;
3541;SDS011;1785;47.388;8.538;2024-01-30T03:51:44;14.50;;;13.20;;
3541;SDS011;1785;47.388;8.538;2024-01-30T03:54:12;13.97;;;12.60;;
3541;SDS011;1785;47.388;8.538;2024-01-30T03:56:38;12.80;;;11.73;;
3541;SDS011;1785;47.388;8.538;2024-01-30T03:59:04;12.90;;;11.60;;
3541;SDS011;1785;47.388;8.538;2024-01-30T04:01:31;14.23;;;12.90;;
3541;SDS011;1785;47.388;8.538;2024-01-30T04:03:57;14.40;;;13.10;;
3541;SDS011;1785;47.388;8.538;2024-01-30T04:06:24;13.73;;;12.53;;
3541;SDS011;1785;47.388;8.538;2024-01-30T04:08:50;13.47;;;12.33;;
3541;SDS011;1785;47.388;8.538;2024-01-30T04:11:17;12.77;;;11.67;;
3541;SDS011;1785;47.388;8.538;2024-01-30T04:13:44;11.70;;;10.50;;
3541;SDS011;1785;47.388;8.538;2024-01-30T04:16:18;12.50;;;11.60;;
3541;SDS011;1785;47.388;8.538;2024-01-30T04:18:46;14.37;;;13.07;;
3541;SDS011;1785;47.388;8.538;2024-01-30T04:21:13;13.00;;;11.90;;
3541;SDS011;1785;47.388;8.538;2024-01-30T04:23:39;14.77;;;13.57;;
3541;SDS011;1785;47.388;8.538;2024-01-30T04:26:05;13.50;;;12.47;;
3541;SDS011;1785;47.388;8.538;2024-01-30T04:28:32;13.90;;;12.63;;
3541;SDS011;1785;47.388;8.538;2024-01-30T04:30:58;12.87;;;11.80;;
3541;SDS011;1785;47.388;8.538;2024-01-30T04:33:24;13.30;;;12.20;;
3541;SDS011;1785;47.388;8.538;2024-01-30T04:35:50;12.73;;;11.77;;
3541;SDS011;1785;47.388;8.538;2024-01-30T04:38:17;12.40;;;11.40;;
3541;SDS011;1785;47.388;8.538;2024-01-30T04:40:43;13.70;;;12.60;;
3541;SDS011;1785;47.388;8.538;2024-01-30T04:43:09;12.53;;;11.63;;
3541;SDS011;1785;47.388;8.538;2024-01-30T04:45:36;13.10;;;12.10;;
3541;SDS011;1785;47.388;8.538;2024-01-30T04:48:02;13.23;;;12.23;;
3541;SDS011;1785;47.388;8.538;2024-01-30T04:50:28;11.90;;;11.10;;
3541;SDS011;1785;47.388;8.538;2024-01-30T04:52:55;11.57;;;10.63;;
3541;SDS011;1785;47.388;8.538;2024-01-30T04:55:21;12.00;;;11.10;;
3541;SDS011;1785;47.388;8.538;2024-01-30T04:57:48;12.47;;;11.40;;
3541;SDS011;1785;47.388;8.538;2024-01-30T05:00:14;11.67;;;10.70;;
3541;SDS011;1785;47.388;8.538;2024-01-30T05:02:40;12.10;;;11.10;;
3541;SDS011;1785;47.388;8.538;2024-01-30T05:05:07;12.00;;;11.10;;
3541;SDS011;1785;47.388;8.538;2024-01-30T05:07:33;11.03;;;10.13;;
3541;SDS011;1785;47.388;8.538;2024-01-30T05:09:59;10.47;;;9.67;;
3541;SDS011;1785;47.388;8.538;2024-01-30T05:14:58;10.03;;;9.37;;
3541;SDS011;1785;47.388;8.538;2024-01-30T05:17:24;10.13;;;9.43;;
3541;SDS011;1785;47.388;8.538;2024-01-30T05:19:51;11.00;;;10.20;;
3541;SDS011;1785;47.388;8.538;2024-01-30T05:22:17;10.37;;;9.77;;
3541;SDS011;1785;47.388;8.538;2024-01-30T05:24:43;10.10;;;9.30;;
3541;SDS011;1785;47.388;8.538;2024-01-30T05:27:10;10.60;;;9.87;;
3541;SDS011;1785;47.388;8.538;2024-01-30T05:29:38;10.47;;;9.77;;
3541;SDS011;1785;47.388;8.538;2024-01-30T05:32:05;11.27;;;10.40;;
3541;SDS011;1785;47.388;8.538;2024-01-30T05:34:31;11.37;;;10.37;;
3541;SDS011;1785;47.388;8.538;2024-01-30T05:36:58;12.47;;;11.47;;
3541;SDS011;1785;47.388;8.538;2024-01-30T05:39:24;11.73;;;10.80;;
3541;SDS011;1785;47.388;8.538;2024-01-30T05:41:50;13.60;;;12.50;;
3541;SDS011;1785;47.388;8.538;2024-01-30T05:44:16;11.73;;;10.73;;
3541;SDS011;1785;47.388;8.538;2024-01-30T05:46:42;11.30;;;10.40;;
3541;SDS011;1785;47.388;8.538;2024-01-30T05:49:09;11.67;;;10.77;;
3541;SDS011;1785;47.388;8.538;2024-01-30T05:51:35;11.10;;;10.30;;
3541;SDS011;1785;47.388;8.538;2024-01-30T05:54:02;10.67;;;9.87;;
3541;SDS011;1785;47.388;8.538;2024-01-30T05:56:29;10.90;;;10.10;;
3541;SDS011;1785;47.388;8.538;2024-01-30T05:58:55;11.60;;;10.53;;
3541;SDS011;1785;47.388;8.538;2024-01-30T06:01:22;11.40;;;10.47;;
3541;SDS011;1785;47.388;8.538;2024-01-30T06:03:48;11.00;;;10.20;;
3541;SDS011;1785;47.388;8.538;2024-01-30T06:06:14;12.53;;;11.37;;
3541;SDS011;1785;47.388;8.538;2024-01-30T06:08:41;11.20;;;10.40;;
3541;SDS011;1785;47.388;8.538;2024-01-30T06:11:09;13.17;;;11.97;;
3541;SDS011;1785;47.388;8.538;2024-01-30T06:13:36;13.13;;;12.13;;
3541;SDS011;1785;47.388;8.538;2024-01-30T06:16:02;12.40;;;11.30;;
3541;SDS011;1785;47.388;8.538;2024-01-30T06:18:28;11.80;;;10.70;;
3541;SDS011;1785;47.388;8.538;2024-01-30T06:20:56;12.57;;;11.37;;
3541;SDS011;1785;47.388;8.538;2024-01-30T06:23:23;11.80;;;10.80;;
3541;SDS011;1785;47.388;8.538;2024-01-30T06:25:49;11.90;;;11.03;;
3541;SDS011;1785;47.388;8.538;2024-01-30T06:28:15;12.27;;;11.30;;
3541;SDS011;1785;47.388;8.538;2024-01-30T06:30:41;11.87;;;10.77;;
3541;SDS011;1785;47.388;8.538;2024-01-30T06:33:10;12.40;;;11.40;;
3541;SDS011;1785;47.388;8.538;2024-01-30T06:35:37;12.20;;;11.20;;
3541;SDS011;1785;47.388;8.538;2024-01-30T06:38:05;12.80;;;11.70;;
3541;SDS011;1785;47.388;8.538;2024-01-30T06:40:32;15.00;;;13.70;;
3541;SDS011;1785;47.388;8.538;2024-01-30T06:42:58;12.23;;;11.23;;
3541;SDS011;1785;47.388;8.538;2024-01-30T06:45:24;13.73;;;12.53;;
3541;SDS011;1785;47.388;8.538;2024-01-30T06:47:50;13.53;;;12.37;;
3541;SDS011;1785;47.388;8.538;2024-01-30T06:50:16;13.53;;;12.43;;
3541;SDS011;1785;47.388;8.538;2024-01-30T06:52:42;13.27;;;12.17;;
3541;SDS011;1785;47.388;8.538;2024-01-30T06:55:09;14.67;;;13.57;;
3541;SDS011;1785;47.388;8.538;2024-01-30T06:57:36;14.70;;;13.40;;
3541;SDS011;1785;47.388;8.538;2024-01-30T07:00:02;14.30;;;13.03;;
3541;SDS011;1785;47.388;8.538;2024-01-30T07:02:28;13.67;;;12.50;;
3541;SDS011;1785;47.388;8.538;2024-01-30T07:04:55;14.17;;;12.97;;
3541;SDS011;1785;47.388;8.538;2024-01-30T07:07:21;13.97;;;12.50;;
3541;SDS011;1785;47.388;8.538;2024-01-30T07:09:47;18.50;;;13.40;;
3541;SDS011;1785;47.388;8.538;2024-01-30T07:12:17;13.93;;;12.63;;
3541;SDS011;1785;47.388;8.538;2024-01-30T07:14:44;17.77;;;15.87;;
3541;SDS011;1785;47.388;8.538;2024-01-30T07:17:11;17.30;;;15.80;;
3541;SDS011;1785;47.388;8.538;2024-01-30T07:19:37;16.63;;;15.13;;
3541;SDS011;1785;47.388;8.538;2024-01-30T07:22:03;15.67;;;14.37;;
3541;SDS011;1785;47.388;8.538;2024-01-30T07:24:29;15.00;;;13.67;;
3541;SDS011;1785;47.388;8.538;2024-01-30T07:26:56;16.90;;;14.50;;
3541;SDS011;1785;47.388;8.538;2024-01-30T07:29:22;15.63;;;14.33;;
3541;SDS011;1785;47.388;8.538;2024-01-30T07:31:49;14.60;;;13.40;;
3541;SDS011;1785;47.388;8.538;2024-01-30T07:34:15;13.60;;;12.40;;
3541;SDS011;1785;47.388;8.538;2024-01-30T07:36:41;15.23;;;14.03;;
3541;SDS011;1785;47.388;8.538;2024-01-30T07:39:07;15.27;;;13.77;;
3541;SDS011;1785;47.388;8.538;2024-01-30T07:41:35;14.23;;;13.00;;
3541;SDS011;1785;47.388;8.538;2024-01-30T07:44:02;17.30;;;14.10;;
3541;SDS011;1785;47.388;8.538;2024-01-30T07:46:29;15.30;;;13.90;;
3541;SDS011;1785;47.388;8.538;2024-01-30T07:48:55;15.80;;;14.13;;
3541;SDS011;1785;47.388;8.538;2024-01-30T07:51:22;16.17;;;14.60;;
3541;SDS011;1785;47.388;8.538;2024-01-30T07:53:52;16.07;;;14.37;;
3541;SDS011;1785;47.388;8.538;2024-01-30T07:56:18;17.47;;;15.70;;
3541;SDS011;1785;47.388;8.538;2024-01-30T07:58:44;17.57;;;15.50;;
3541;SDS011;1785;47.388;8.538;2024-01-30T08:01:10;17.60;;;14.70;;
3541;SDS011;1785;47.388;8.538;2024-01-30T08:03:37;17.10;;;14.00;;
3541;SDS011;1785;47.388;8.538;2024-01-30T08:06:06;18.27;;;15.90;;
3541;SDS011;1785;47.388;8.538;2024-01-30T08:08:32;17.33;;;15.90;;
3541;SDS011;1785;47.388;8.538;2024-01-30T08:10:58;15.87;;;14.47;;
3541;SDS011;1785;47.388;8.538;2024-01-30T08:13:25;16.23;;;14.73;;
3541;SDS011;1785;47.388;8.538;2024-01-30T08:15:51;15.53;;;14.13;;
3541;SDS011;1785;47.388;8.538;2024-01-30T08:18:17;14.27;;;12.97;;
3541;SDS011;1785;47.388;8.538;2024-01-30T08:20:43;17.23;;;14.60;;
3541;SDS011;1785;47.388;8.538;2024-01-30T08:23:10;17.30;;;15.50;;
3541;SDS011;1785;47.388;8.538;2024-01-30T08:25:36;18.13;;;15.17;;
3541;SDS011;1785;47.388;8.538;2024-01-30T08:28:02;18.10;;;16.10;;
3541;SDS011;1785;47.388;8.538;2024-01-30T08:30:29;18.90;;;16.63;;
3541;SDS011;1785;47.388;8.538;2024-01-30T08:32:55;18.40;;;16.60;;
3541;SDS011;1785;47.388;8.538;2024-01-30T08:35:21;20.10;;;18.30;;
3541;SDS011;1785;47.388;8.538;2024-01-30T08:37:48;20.80;;;17.77;;
3541;SDS011;1785;47.388;8.538;2024-01-30T08:40:14;20.20;;;17.37;;
3541;SDS011;1785;47.388;8.538;2024-01-30T08:42:41;17.67;;;16.07;;
3541;SDS011;1785;47.388;8.538;2024-01-30T08:45:07;18.23;;;16.70;;
3541;SDS011;1785;47.388;8.538;2024-01-30T08:47:34;17.97;;;16.13;;
3541;SDS011;1785;47.388;8.538;2024-01-30T08:50:00;18.67;;;16.77;;
3541;SDS011;1785;47.388;8.538;2024-01-30T08:52:26;18.33;;;16.73;;
3541;SDS011;1785;47.388;8.538;2024-01-30T08:54:52;19.73;;;16.93;;
3541;SDS011;1785;47.388;8.538;2024-01-30T08:57:20;18.23;;;16.37;;
3541;SDS011;1785;47.388;8.538;2024-01-30T08:59:46;18.10;;;16.27;;
3541;SDS011;1785;47.388;8.538;2024-01-30T09:02:13;18.30;;;16.50;;
3541;SDS011;1785;47.388;8.538;2024-01-30T09:04:41;20.70;;;16.33;;
3541;SDS011;1785;47.388;8.538;2024-01-30T09:07:08;18.67;;;16.93;;
3541;SDS011;1785;47.388;8.538;2024-01-30T09:09:35;16.57;;;15.07;;
3541;SDS011;1785;47.388;8.538;2024-01-30T09:12:02;18.47;;;16.73;;
3541;SDS011;1785;47.388;8.538;2024-01-30T09:14:33;19.07;;;17.20;;
3541;SDS011;1785;47.388;8.538;2024-01-30T09:16:59;18.00;;;16.10;;
3541;SDS011;1785;47.388;8.538;2024-01-30T09:19:25;16.77;;;15.03;;
3541;SDS011;1785;47.388;8.538;2024-01-30T09:21:51;17.90;;;16.07;;
3541;SDS011;1785;47.388;8.538;2024-01-30T09:24:17;18.83;;;17.03;;
3541;SDS011;1785;47.388;8.538;2024-01-30T09:26:43;17.20;;;15.40;;
3541;SDS011;1785;47.388;8.538;2024-01-30T09:29:10;16.57;;;15.13;;
3541;SDS011;1785;47.388;8.538;2024-01-30T09:31:36;19.40;;;17.30;;
3541;SDS011;1785;47.388;8.538;2024-01-30T09:34:03;17.73;;;15.97;;
3541;SDS011;1785;47.388;8.538;2024-01-30T09:36:29;18.90;;;16.67;;
3541;SDS011;1785;47.388;8.538;2024-01-30T09:38:55;18.07;;;16.47;;
3541;SDS011;1785;47.388;8.538;2024-01-30T09:41:22;22.53;;;17.87;;
3541;SDS011;1785;47.388;8.538;2024-01-30T09:43:49;17.07;;;15.40;;
3541;SDS011;1785;47.388;8.538;2024-01-30T09:46:19;20.27;;;17.97;;
3541;SDS011;1785;47.388;8.538;2024-01-30T09:48:49;18.83;;;16.83;;
3541;SDS011;1785;47.388;8.538;2024-01-30T09:51:15;19.13;;;17.33;;
3541;SDS011;1785;47.388;8.538;2024-01-30T09:53:43;19.67;;;17.60;;
3541;SDS011;1785;47.388;8.538;2024-01-30T09:56:09;24.77;;;17.50;;
3541;SDS011;1785;47.388;8.538;2024-01-30T09:58:36;17.63;;;15.90;;
3541;SDS011;1785;47.388;8.538;2024-01-30T10:01:02;18.63;;;16.70;;
3541;SDS011;1785;47.388;8.538;2024-01-30T10:03:28;19.13;;;17.30;;
3541;SDS011;1785;47.388;8.538;2024-01-30T10:05:57;19.20;;;17.33;;
3541;SDS011;1785;47.388;8.538;2024-01-30T10:08:23;18.47;;;16.33;;
3541;SDS011;1785;47.388;8.538;2024-01-30T10:10:51;17.93;;;16.43;;
3541;SDS011;1785;47.388;8.538;2024-01-30T10:13:17;20.93;;;18.83;;
3541;SDS011;1785;47.388;8.538;2024-01-30T10:15:47;19.87;;;17.73;;
3541;SDS011;1785;47.388;8.538;2024-01-30T10:18:13;22.20;;;18.73;;
3541;SDS011;1785;47.388;8.538;2024-01-30T10:20:39;20.77;;;18.53;;
3541;SDS011;1785;47.388;8.538;2024-01-30T10:23:06;19.90;;;16.40;;
3541;SDS011;1785;47.388;8.538;2024-01-30T10:25:33;21.07;;;18.97;;
3541;SDS011;1785;47.388;8.538;2024-01-30T10:27:59;19.40;;;17.70;;
3541;SDS011;1785;47.388;8.538;2024-01-30T10:30:26;20.60;;;18.37;;
3541;SDS011;1785;47.388;8.538;2024-01-30T10:32:53;20.37;;;18.30;;
3541;SDS011;1785;47.388;8.538;2024-01-30T10:35:19;17.90;;;16.00;;
3541;SDS011;1785;47.388;8.538;2024-01-30T10:37:46;19.23;;;17.23;;
3541;SDS011;1785;47.388;8.538;2024-01-30T10:40:14;17.90;;;14.57;;
3541;SDS011;1785;47.388;8.538;2024-01-30T10:42:42;16.50;;;15.00;;
3541;SDS011;1785;47.388;8.538;2024-01-30T10:45:09;17.70;;;14.80;;
3541;SDS011;1785;47.388;8.538;2024-01-30T10:47:37;16.23;;;14.53;;
3541;SDS011;1785;47.388;8.538;2024-01-30T10:50:07;14.97;;;13.40;;
3541;SDS011;1785;47.388;8.538;2024-01-30T10:52:35;15.83;;;14.30;;
3541;SDS011;1785;47.388;8.538;2024-01-30T10:55:02;15.37;;;13.90;;
3541;SDS011;1785;47.388;8.538;2024-01-30T10:57:32;14.10;;;12.90;;
3541;SDS011;1785;47.388;8.538;2024-01-30T11:00:00;14.43;;;13.03;;
3541;SDS011;1785;47.388;8.538;2024-01-30T11:02:30;14.63;;;13.13;;
3541;SDS011;1785;47.388;8.538;2024-01-30T11:04:57;14.73;;;13.40;;
3541;SDS011;1785;47.388;8.538;2024-01-30T11:07:25;17.03;;;14.80;;
3541;SDS011;1785;47.388;8.538;2024-01-30T11:09:52;15.33;;;13.53;;
3541;SDS011;1785;47.388;8.538;2024-01-30T11:12:22;16.10;;;14.27;;
3541;SDS011;1785;47.388;8.538;2024-01-30T11:14:50;17.20;;;14.10;;
3541;SDS011;1785;47.388;8.538;2024-01-30T11:17:28;18.23;;;15.27;;
3541;SDS011;1785;47.388;8.538;2024-01-30T11:20:05;18.03;;;16.30;;
3541;SDS011;1785;47.388;8.538;2024-01-30T11:22:34;16.87;;;14.90;;
3541;SDS011;1785;47.388;8.538;2024-01-30T11:25:01;16.40;;;14.70;;
3541;SDS011;1785;47.388;8.538;2024-01-30T11:27:28;16.70;;;14.47;;
3541;SDS011;1785;47.388;8.538;2024-01-30T11:29:55;15.70;;;13.50;;
3541;SDS011;1785;47.388;8.538;2024-01-30T11:32:27;17.77;;;13.90;;
3541;SDS011;1785;47.388;8.538;2024-01-30T11:34:54;14.10;;;12.63;;
3541;SDS011;1785;47.388;8.538;2024-01-30T11:37:21;13.43;;;11.90;;
3541;SDS011;1785;47.388;8.538;2024-01-30T11:39:50;12.53;;;11.33;;
3541;SDS011;1785;47.388;8.538;2024-01-30T11:42:18;13.53;;;11.83;;
3541;SDS011;1785;47.388;8.538;2024-01-30T11:44:46;12.40;;;11.20;;
3541;SDS011;1785;47.388;8.538;2024-01-30T11:47:13;11.77;;;10.30;;
3541;SDS011;1785;47.388;8.538;2024-01-30T11:49:40;10.83;;;9.83;;
3541;SDS011;1785;47.388;8.538;2024-01-30T11:52:06;10.73;;;9.73;;
3541;SDS011;1785;47.388;8.538;2024-01-30T11:54:33;9.90;;;9.00;;
3541;SDS011;1785;47.388;8.538;2024-01-30T11:56:59;9.90;;;8.90;;
3541;SDS011;1785;47.388;8.538;2024-01-30T11:59:25;9.57;;;8.67;;
3541;SDS011;1785;47.388;8.538;2024-01-30T12:01:51;10.27;;;9.10;;
3541;SDS011;1785;47.388;8.538;2024-01-30T12:04:18;9.63;;;8.70;;
3541;SDS011;1785;47.388;8.538;2024-01-30T12:06:44;10.50;;;9.70;;
3541;SDS011;1785;47.388;8.538;2024-01-30T12:09:17;11.03;;;9.93;;
3541;SDS011;1785;47.388;8.538;2024-01-30T12:11:43;10.70;;;9.63;;
3541;SDS011;1785;47.388;8.538;2024-01-30T12:14:10;10.20;;;9.20;;
3541;SDS011;1785;47.388;8.538;2024-01-30T12:16:37;12.33;;;9.97;;
3541;SDS011;1785;47.388;8.538;2024-01-30T12:19:03;12.27;;;9.93;;
3541;SDS011;1785;47.388;8.538;2024-01-30T12:21:30;10.53;;;9.47;;
3541;SDS011;1785;47.388;8.538;2024-01-30T12:23:56;9.63;;;8.80;;
3541;SDS011;1785;47.388;8.538;2024-01-30T12:26:23;13.93;;;9.87;;
3541;SDS011;1785;47.388;8.538;2024-01-30T12:28:50;14.20;;;10.70;;
3541;SDS011;1785;47.388;8.538;2024-01-30T12:31:25;11.30;;;9.80;;
3541;SDS011;1785;47.388;8.538;2024-01-30T12:33:52;12.00;;;10.43;;
3541;SDS011;1785;47.388;8.538;2024-01-30T12:36:18;12.63;;;11.43;;
3541;SDS011;1785;47.388;8.538;2024-01-30T12:38:45;12.80;;;10.50;;
3541;SDS011;1785;47.388;8.538;2024-01-30T12:41:11;13.30;;;11.03;;
3541;SDS011;1785;47.388;8.538;2024-01-30T12:43:37;13.30;;;12.00;;
3541;SDS011;1785;47.388;8.538;2024-01-30T12:46:04;13.27;;;11.97;;
3541;SDS011;1785;47.388;8.538;2024-01-30T12:48:31;12.77;;;11.43;;
3541;SDS011;1785;47.388;8.538;2024-01-30T12:50:57;12.60;;;10.63;;
3541;SDS011;1785;47.388;8.538;2024-01-30T12:53:24;13.87;;;10.97;;
3541;SDS011;1785;47.388;8.538;2024-01-30T12:55:51;12.47;;;11.20;;
3541;SDS011;1785;47.388;8.538;2024-01-30T12:58:19;16.40;;;11.40;;
3541;SDS011;1785;47.388;8.538;2024-01-30T13:00:45;12.27;;;11.07;;
3541;SDS011;1785;47.388;8.538;2024-01-30T13:03:12;14.63;;;12.00;;
3541;SDS011;1785;47.388;8.538;2024-01-30T13:05:38;14.70;;;13.27;;
3541;SDS011;1785;47.388;8.538;2024-01-30T13:08:06;13.27;;;11.97;;
3541;SDS011;1785;47.388;8.538;2024-01-30T13:10:32;14.20;;;12.60;;
3541;SDS011;1785;47.388;8.538;2024-01-30T13:12:59;15.60;;;12.03;;
3541;SDS011;1785;47.388;8.538;2024-01-30T13:15:25;17.30;;;12.40;;
3541;SDS011;1785;47.388;8.538;2024-01-30T13:17:51;14.83;;;13.40;;
3541;SDS011;1785;47.388;8.538;2024-01-30T13:20:19;13.67;;;12.37;;
3541;SDS011;1785;47.388;8.538;2024-01-30T13:22:46;14.33;;;13.00;;
3541;SDS011;1785;47.388;8.538;2024-01-30T13:25:14;11.93;;;10.67;;
3541;SDS011;1785;47.388;8.538;2024-01-30T13:27:40;16.20;;;12.23;;
3541;SDS011;1785;47.388;8.538;2024-01-30T13:30:07;18.40;;;13.47;;
3541;SDS011;1785;47.388;8.538;2024-01-30T13:32:34;14.07;;;12.77;;
3541;SDS011;1785;47.388;8.538;2024-01-30T13:35:00;13.37;;;12.17;;
3541;SDS011;1785;47.388;8.538;2024-01-30T13:37:26;13.00;;;11.77;;
3541;SDS011;1785;47.388;8.538;2024-01-30T13:39:53;13.90;;;12.70;;
3541;SDS011;1785;47.388;8.538;2024-01-30T13:42:19;15.43;;;12.50;;
3541;SDS011;1785;47.388;8.538;2024-01-30T13:44:45;16.20;;;14.50;;
3541;SDS011;1785;47.388;8.538;2024-01-30T13:47:12;14.47;;;11.93;;
3541;SDS011;1785;47.388;8.538;2024-01-30T13:49:38;13.70;;;11.87;;
3541;SDS011;1785;47.388;8.538;2024-01-30T13:52:04;12.83;;;11.53;;
3541;SDS011;1785;47.388;8.538;2024-01-30T13:54:31;13.03;;;11.57;;
3541;SDS011;1785;47.388;8.538;2024-01-30T13:56:57;15.03;;;12.90;;
3541;SDS011;1785;47.388;8.538;2024-01-30T13:59:23;14.70;;;11.80;;
3541;SDS011;1785;47.388;8.538;2024-01-30T14:01:51;15.37;;;12.60;;
3541;SDS011;1785;47.388;8.538;2024-01-30T14:04:18;14.03;;;12.70;;
3541;SDS011;1785;47.388;8.538;2024-01-30T14:06:44;12.60;;;11.40;;
3541;SDS011;1785;47.388;8.538;2024-01-30T14:09:10;13.00;;;11.60;;
3541;SDS011;1785;47.388;8.538;2024-01-30T14:11:36;13.20;;;11.80;;
3541;SDS011;1785;47.388;8.538;2024-01-30T14:14:08;13.83;;;12.30;;
3541;SDS011;1785;47.388;8.538;2024-01-30T14:16:34;12.60;;;11.40;;
3541;SDS011;1785;47.388;8.538;2024-01-30T14:19:01;13.10;;;11.10;;
3541;SDS011;1785;47.388;8.538;2024-01-30T14:21:28;12.90;;;11.53;;
3541;SDS011;1785;47.388;8.538;2024-01-30T14:23:54;12.20;;;10.97;;
3541;SDS011;1785;47.388;8.538;2024-01-30T14:26:21;12.53;;;11.20;;
3541;SDS011;1785;47.388;8.538;2024-01-30T14:28:47;15.70;;;12.13;;
3541;SDS011;1785;47.388;8.538;2024-01-30T14:31:13;12.47;;;10.83;;
3541;SDS011;1785;47.388;8.538;2024-01-30T14:33:39;10.87;;;9.83;;
3541;SDS011;1785;47.388;8.538;2024-01-30T14:36:05;11.30;;;10.20;;
3541;SDS011;1785;47.388;8.538;2024-01-30T14:38:34;11.10;;;10.00;;
3541;SDS011;1785;47.388;8.538;2024-01-30T14:41:00;11.40;;;9.87;;
3541;SDS011;1785;47.388;8.538;2024-01-30T14:43:27;12.70;;;11.40;;
3541;SDS011;1785;47.388;8.538;2024-01-30T14:45:53;12.33;;;9.90;;
3541;SDS011;1785;47.388;8.538;2024-01-30T14:48:19;10.37;;;9.43;;